sensor_id;sensor_type;location;lat;lon;timestamp;pressure;altitude;pressure_sealevel;temperature;humidity
33404;BME280;19751;40.274;18.268;2023-08-17T00:01:20;100956.50;;;24.71;100.00
33404;BME280;19751;40.274;18.268;2023-08-17T00:03:46;100967.81;;;24.70;100.00
33404;BME280;19751;40.274;18.268;2023-08-17T00:06:11;100960.91;;;24.67;100.00
33404;BME280;19751;40.274;18.268;2023-08-17T00:08:37;100964.53;;;24.68;100.00
33404;BME280;19751;40.274;18.268;2023-08-17T00:11:02;100959.25;;;24.71;100.00
33404;BME280;19751;40.274;18.268;2023-08-17T00:13:28;100956.25;;;24.73;100.00
33404;BME280;19751;40.274;18.268;2023-08-17T00:15:54;100960.91;;;24.77;100.00
33404;BME280;19751;40.274;18.268;2023-08-17T00:18:19;100955.69;;;24.76;100.00
33404;BME280;19751;40.274;18.268;2023-08-17T00:20:45;100957.59;;;24.75;100.00
33404;BME280;19751;40.274;18.268;2023-08-17T00:23:10;100957.34;;;24.77;100.00
33404;BME280;19751;40.274;18.268;2023-08-17T00:25:36;100947.44;;;24.76;100.00
33404;BME280;19751;40.274;18.268;2023-08-17T00:28:01;100953.75;;;24.76;100.00
33404;BME280;19751;40.274;18.268;2023-08-17T00:30:27;100954.03;;;24.80;100.00
33404;BME280;19751;40.274;18.268;2023-08-17T00:32:52;100960.38;;;24.80;100.00
33404;BME280;19751;40.274;18.268;2023-08-17T00:35:18;100963.38;;;24.79;100.00
33404;BME280;19751;40.274;18.268;2023-08-17T00:37:43;100948.78;;;24.78;100.00
33404;BME280;19751;40.274;18.268;2023-08-17T00:40:09;100952.09;;;24.80;100.00
33404;BME280;19751;40.274;18.268;2023-08-17T00:42:35;100947.69;;;24.85;100.00
33404;BME280;19751;40.274;18.268;2023-08-17T00:45:00;100953.75;;;24.82;100.00
33404;BME280;19751;40.274;18.268;2023-08-17T00:47:27;100950.44;;;24.79;100.00
33404;BME280;19751;40.274;18.268;2023-08-17T00:49:53;100943.28;;;24.78;100.00
33404;BME280;19751;40.274;18.268;2023-08-17T00:52:19;100947.66;;;24.79;100.00
33404;BME280;19751;40.274;18.268;2023-08-17T00:54:44;100946.03;;;24.78;100.00
33404;BME280;19751;40.274;18.268;2023-08-17T00:57:11;100952.09;;;24.80;100.00
33404;BME280;19751;40.274;18.268;2023-08-17T00:59:36;100939.41;;;24.79;100.00
33404;BME280;19751;40.274;18.268;2023-08-17T01:02:02;100936.41;;;24.81;100.00
33404;BME280;19751;40.274;18.268;2023-08-17T01:04:28;100936.66;;;24.85;100.00
33404;BME280;19751;40.274;18.268;2023-08-17T01:06:53;100927.81;;;24.88;100.00
33404;BME280;19751;40.274;18.268;2023-08-17T01:09:19;100936.38;;;24.86;100.00
33404;BME280;19751;40.274;18.268;2023-08-17T01:11:50;100934.72;;;24.85;100.00
33404;BME280;19751;40.274;18.268;2023-08-17T01:14:33;100925.91;;;24.83;100.00
33404;BME280;19751;40.274;18.268;2023-08-17T01:17:22;100930.31;;;24.84;100.00
33404;BME280;19751;40.274;18.268;2023-08-17T01:19:52;100921.50;;;24.82;100.00
33404;BME280;19751;40.274;18.268;2023-08-17T01:22:21;100928.94;;;24.82;100.00
33404;BME280;19751;40.274;18.268;2023-08-17T01:24:48;100914.63;;;24.79;100.00
33404;BME280;19751;40.274;18.268;2023-08-17T01:27:13;100916.03;;;24.77;100.00
33404;BME280;19751;40.274;18.268;2023-08-17T01:29:39;100909.13;;;24.74;100.00
33404;BME280;19751;40.274;18.268;2023-08-17T01:32:33;100906.38;;;24.74;100.00
33404;BME280;19751;40.274;18.268;2023-08-17T01:35:09;100898.66;;;24.76;100.00
33404;BME280;19751;40.274;18.268;2023-08-17T01:37:38;100904.72;;;24.78;100.00
33404;BME280;19751;40.274;18.268;2023-08-17T01:40:06;100902.50;;;24.80;100.00
33404;BME280;19751;40.274;18.268;2023-08-17T01:42:32;100899.75;;;24.80;100.00
33404;BME280;19751;40.274;18.268;2023-08-17T01:44:58;100898.66;;;24.82;100.00
33404;BME280;19751;40.274;18.268;2023-08-17T01:47:24;100901.94;;;24.84;100.00
33404;BME280;19751;40.274;18.268;2023-08-17T01:49:49;100897.25;;;24.84;100.00
33404;BME280;19751;40.274;18.268;2023-08-17T01:52:15;100898.91;;;24.85;100.00
33404;BME280;19751;40.274;18.268;2023-08-17T01:54:40;100898.91;;;24.85;100.00
33404;BME280;19751;40.274;18.268;2023-08-17T01:57:06;100895.06;;;24.86;100.00
33404;BME280;19751;40.274;18.268;2023-08-17T01:59:31;100895.06;;;24.86;100.00
33404;BME280;19751;40.274;18.268;2023-08-17T02:01:57;100902.19;;;24.87;100.00
33404;BME280;19751;40.274;18.268;2023-08-17T02:04:22;100894.22;;;24.86;100.00
33404;BME280;19751;40.274;18.268;2023-08-17T02:06:48;100897.53;;;24.83;100.00
33404;BME280;19751;40.274;18.268;2023-08-17T02:09:13;100890.09;;;24.83;100.00
33404;BME280;19751;40.274;18.268;2023-08-17T02:11:39;100893.66;;;24.84;100.00
33404;BME280;19751;40.274;18.268;2023-08-17T02:14:04;100890.91;;;24.84;100.00
33404;BME280;19751;40.274;18.268;2023-08-17T02:16:30;100889.56;;;24.81;100.00
33404;BME280;19751;40.274;18.268;2023-08-17T02:18:55;100879.66;;;24.80;100.00
33404;BME280;19751;40.274;18.268;2023-08-17T02:21:21;100882.66;;;24.78;100.00
33404;BME280;19751;40.274;18.268;2023-08-17T02:23:46;100879.09;;;24.78;100.00
33404;BME280;19751;40.274;18.268;2023-08-17T02:26:12;100884.06;;;24.76;100.00
33404;BME280;19751;40.274;18.268;2023-08-17T02:28:37;100892.06;;;24.77;100.00
33404;BME280;19751;40.274;18.268;2023-08-17T02:31:03;100881.31;;;24.76;100.00
33404;BME280;19751;40.274;18.268;2023-08-17T02:33:28;100877.72;;;24.75;100.00
33404;BME280;19751;40.274;18.268;2023-08-17T02:35:54;100876.06;;;24.74;100.00
33404;BME280;19751;40.274;18.268;2023-08-17T02:38:19;100866.47;;;24.72;100.00
33404;BME280;19751;40.274;18.268;2023-08-17T02:40:45;100874.72;;;24.72;100.00
33404;BME280;19751;40.274;18.268;2023-08-17T02:43:10;100871.38;;;24.75;100.00
33404;BME280;19751;40.274;18.268;2023-08-17T02:45:36;100867.25;;;24.77;100.00
33404;BME280;19751;40.274;18.268;2023-08-17T02:48:02;100867.56;;;24.76;100.00
33404;BME280;19751;40.274;18.268;2023-08-17T02:50:27;100868.38;;;24.76;100.00
33404;BME280;19751;40.274;18.268;2023-08-17T02:52:53;100869.44;;;24.75;100.00
33404;BME280;19751;40.274;18.268;2023-08-17T02:55:18;100865.88;;;24.75;100.00
33404;BME280;19751;40.274;18.268;2023-08-17T02:57:44;100867.81;;;24.74;100.00
33404;BME280;19751;40.274;18.268;2023-08-17T03:00:10;100864.53;;;24.72;100.00
33404;BME280;19751;40.274;18.268;2023-08-17T03:02:35;100868.66;;;24.70;100.00
33404;BME280;19751;40.274;18.268;2023-08-17T03:05:02;100867.03;;;24.69;100.00
33404;BME280;19751;40.274;18.268;2023-08-17T03:07:28;100862.63;;;24.68;100.00
33404;BME280;19751;40.274;18.268;2023-08-17T03:09:53;100870.03;;;24.67;100.00
33404;BME280;19751;40.274;18.268;2023-08-17T03:12:19;100866.19;;;24.68;100.00
33404;BME280;19751;40.274;18.268;2023-08-17T03:14:44;100868.38;;;24.66;100.00
33404;BME280;19751;40.274;18.268;2023-08-17T03:17:10;100874.72;;;24.67;100.00
33404;BME280;19751;40.274;18.268;2023-08-17T03:19:35;100871.16;;;24.61;100.00
33404;BME280;19751;40.274;18.268;2023-08-17T03:22:01;100871.47;;;24.60;100.00
33404;BME280;19751;40.274;18.268;2023-08-17T03:24:26;100871.72;;;24.58;100.00
33404;BME280;19751;40.274;18.268;2023-08-17T03:26:52;100875.59;;;24.57;100.00
33404;BME280;19751;40.274;18.268;2023-08-17T03:29:17;100878.88;;;24.59;100.00
33404;BME280;19751;40.274;18.268;2023-08-17T03:31:43;100875.59;;;24.57;100.00
33404;BME280;19751;40.274;18.268;2023-08-17T03:34:08;100869.25;;;24.57;100.00
33404;BME280;19751;40.274;18.268;2023-08-17T03:36:34;100881.09;;;24.57;100.00
33404;BME280;19751;40.274;18.268;2023-08-17T03:38:59;100877.78;;;24.60;100.00
33404;BME280;19751;40.274;18.268;2023-08-17T03:41:25;100877.22;;;24.58;100.00
33404;BME280;19751;40.274;18.268;2023-08-17T03:43:50;100883.28;;;24.55;100.00
33404;BME280;19751;40.274;18.268;2023-08-17T03:46:16;100888.78;;;24.55;100.00
33404;BME280;19751;40.274;18.268;2023-08-17T03:48:41;100885.50;;;24.53;100.00
33404;BME280;19751;40.274;18.268;2023-08-17T03:51:07;100883.56;;;24.53;100.00
33404;BME280;19751;40.274;18.268;2023-08-17T03:53:32;100887.44;;;24.52;100.00
33404;BME280;19751;40.274;18.268;2023-08-17T03:55:58;100887.69;;;24.51;100.00
33404;BME280;19751;40.274;18.268;2023-08-17T03:58:23;100891.56;;;24.50;100.00
33404;BME280;19751;40.274;18.268;2023-08-17T04:00:52;100892.97;;;24.47;100.00
33404;BME280;19751;40.274;18.268;2023-08-17T04:03:21;100896.53;;;24.48;100.00
33404;BME280;19751;40.274;18.268;2023-08-17T04:05:46;100896.81;;;24.46;100.00
33404;BME280;19751;40.274;18.268;2023-08-17T04:08:12;100893.50;;;24.44;100.00
33404;BME280;19751;40.274;18.268;2023-08-17T04:10:39;100893.81;;;24.43;100.00
33404;BME280;19751;40.274;18.268;2023-08-17T04:13:04;100899.56;;;24.41;100.00
33404;BME280;19751;40.274;18.268;2023-08-17T04:15:30;100899.31;;;24.43;100.00
33404;BME280;19751;40.274;18.268;2023-08-17T04:17:55;100890.19;;;24.42;100.00
33404;BME280;19751;40.274;18.268;2023-08-17T04:20:21;100898.22;;;24.39;100.00
33404;BME280;19751;40.274;18.268;2023-08-17T04:22:48;100897.09;;;24.40;100.00
33404;BME280;19751;40.274;18.268;2023-08-17T04:25:13;100900.13;;;24.43;100.00
33404;BME280;19751;40.274;18.268;2023-08-17T04:27:39;100892.41;;;24.45;100.00
33404;BME280;19751;40.274;18.268;2023-08-17T04:30:05;100897.66;;;24.47;100.00
33404;BME280;19751;40.274;18.268;2023-08-17T04:32:31;100899.84;;;24.45;100.00
33404;BME280;19751;40.274;18.268;2023-08-17T04:34:56;100895.44;;;24.44;100.00
33404;BME280;19751;40.274;18.268;2023-08-17T04:37:22;100908.91;;;24.45;100.00
33404;BME280;19751;40.274;18.268;2023-08-17T04:39:47;100900.94;;;24.49;100.00
33404;BME280;19751;40.274;18.268;2023-08-17T04:42:14;100906.72;;;24.52;100.00
33404;BME280;19751;40.274;18.268;2023-08-17T04:44:40;100901.22;;;24.52;100.00
33404;BME280;19751;40.274;18.268;2023-08-17T04:47:05;100896.81;;;24.51;100.00
33404;BME280;19751;40.274;18.268;2023-08-17T04:49:31;100901.22;;;24.52;100.00
33404;BME280;19751;40.274;18.268;2023-08-17T04:51:56;100895.16;;;24.55;100.00
33404;BME280;19751;40.274;18.268;2023-08-17T04:54:22;100902.84;;;24.59;100.00
33404;BME280;19751;40.274;18.268;2023-08-17T04:56:47;100894.84;;;24.62;100.00
33404;BME280;19751;40.274;18.268;2023-08-17T04:59:13;100908.34;;;24.64;100.00
33404;BME280;19751;40.274;18.268;2023-08-17T05:01:38;100907.50;;;24.68;100.00
33404;BME280;19751;40.274;18.268;2023-08-17T05:04:04;100911.34;;;24.72;100.00
33404;BME280;19751;40.274;18.268;2023-08-17T05:06:30;100907.75;;;24.77;100.00
33404;BME280;19751;40.274;18.268;2023-08-17T05:08:56;100910.78;;;24.80;100.00
33404;BME280;19751;40.274;18.268;2023-08-17T05:11:22;100907.72;;;24.82;100.00
33404;BME280;19751;40.274;18.268;2023-08-17T05:13:48;100907.19;;;24.85;100.00
33404;BME280;19751;40.274;18.268;2023-08-17T05:16:14;100903.59;;;24.90;100.00
33404;BME280;19751;40.274;18.268;2023-08-17T05:18:39;100912.94;;;24.94;100.00
33404;BME280;19751;40.274;18.268;2023-08-17T05:21:05;100912.63;;;25.00;100.00
33404;BME280;19751;40.274;18.268;2023-08-17T05:23:31;100911.78;;;25.05;100.00
33404;BME280;19751;40.274;18.268;2023-08-17T05:25:57;100908.19;;;25.04;100.00
33404;BME280;19751;40.274;18.268;2023-08-17T05:28:22;100922.00;;;25.10;100.00
33404;BME280;19751;40.274;18.268;2023-08-17T05:30:48;100912.88;;;25.14;100.00
33404;BME280;19751;40.274;18.268;2023-08-17T05:33:14;100917.53;;;25.19;100.00
33404;BME280;19751;40.274;18.268;2023-08-17T05:35:39;100920.28;;;25.24;100.00
33404;BME280;19751;40.274;18.268;2023-08-17T05:38:05;100911.97;;;25.29;100.00
33404;BME280;19751;40.274;18.268;2023-08-17T05:40:32;100915.81;;;25.33;100.00
33404;BME280;19751;40.274;18.268;2023-08-17T05:42:57;100904.50;;;25.35;100.00
33404;BME280;19751;40.274;18.268;2023-08-17T05:45:23;100907.28;;;25.35;100.00
33404;BME280;19751;40.274;18.268;2023-08-17T05:47:48;100918.56;;;25.38;100.00
33404;BME280;19751;40.274;18.268;2023-08-17T05:50:14;100914.69;;;25.39;100.00
33404;BME280;19751;40.274;18.268;2023-08-17T05:52:40;100916.31;;;25.40;100.00
33404;BME280;19751;40.274;18.268;2023-08-17T05:55:06;100916.59;;;25.44;100.00
33404;BME280;19751;40.274;18.268;2023-08-17T05:57:32;100913.78;;;25.49;100.00
33404;BME280;19751;40.274;18.268;2023-08-17T05:59:57;100916.25;;;25.50;100.00
33404;BME280;19751;40.274;18.268;2023-08-17T06:02:23;100913.75;;;25.54;100.00
33404;BME280;19751;40.274;18.268;2023-08-17T06:04:48;100913.50;;;25.56;100.00
33404;BME280;19751;40.274;18.268;2023-08-17T06:07:14;100911.25;;;25.58;100.00
33404;BME280;19751;40.274;18.268;2023-08-17T06:09:39;100904.34;;;25.60;100.00
33404;BME280;19751;40.274;18.268;2023-08-17T06:12:05;100911.19;;;25.68;100.00
33404;BME280;19751;40.274;18.268;2023-08-17T06:14:33;100915.84;;;25.77;100.00
33404;BME280;19751;40.274;18.268;2023-08-17T06:16:59;100911.66;;;25.85;100.00
33404;BME280;19751;40.274;18.268;2023-08-17T06:19:25;100921.00;;;25.89;100.00
33404;BME280;19751;40.274;18.268;2023-08-17T06:21:50;100915.19;;;25.91;100.00
33404;BME280;19751;40.274;18.268;2023-08-17T06:24:16;100915.75;;;25.93;100.00
33404;BME280;19751;40.274;18.268;2023-08-17T06:26:41;100920.72;;;25.91;100.00
33404;BME280;19751;40.274;18.268;2023-08-17T06:29:07;100914.13;;;25.87;100.00
33404;BME280;19751;40.274;18.268;2023-08-17T06:31:32;100930.72;;;25.82;100.00
33404;BME280;19751;40.274;18.268;2023-08-17T06:33:58;100931.03;;;25.80;100.00
33404;BME280;19751;40.274;18.268;2023-08-17T06:36:24;100925.19;;;25.82;100.00
33404;BME280;19751;40.274;18.268;2023-08-17T06:38:49;100928.22;;;25.85;100.00
33404;BME280;19751;40.274;18.268;2023-08-17T06:41:16;100929.00;;;25.91;100.00
33404;BME280;19751;40.274;18.268;2023-08-17T06:43:41;100925.13;;;25.92;100.00
33404;BME280;19751;40.274;18.268;2023-08-17T06:46:07;100935.88;;;25.93;100.00
33404;BME280;19751;40.274;18.268;2023-08-17T06:48:32;100925.09;;;25.97;100.00
33404;BME280;19751;40.274;18.268;2023-08-17T06:50:58;100921.16;;;26.03;100.00
33404;BME280;19751;40.274;18.268;2023-08-17T06:53:23;100923.59;;;26.10;100.00
33404;BME280;19751;40.274;18.268;2023-08-17T06:55:49;100933.22;;;26.17;100.00
33404;BME280;19751;40.274;18.268;2023-08-17T06:58:14;100928.97;;;26.25;100.00
33404;BME280;19751;40.274;18.268;2023-08-17T07:00:40;100925.38;;;26.30;100.00
33404;BME280;19751;40.274;18.268;2023-08-17T07:03:06;100929.16;;;26.39;100.00
33404;BME280;19751;40.274;18.268;2023-08-17T07:05:32;100928.00;;;26.45;100.00
33404;BME280;19751;40.274;18.268;2023-08-17T07:07:58;100928.50;;;26.52;100.00
33404;BME280;19751;40.274;18.268;2023-08-17T07:10:25;100928.44;;;26.57;100.00
33404;BME280;19751;40.274;18.268;2023-08-17T07:12:50;100929.50;;;26.61;100.00
33404;BME280;19751;40.274;18.268;2023-08-17T07:15:16;100931.13;;;26.62;100.00
33404;BME280;19751;40.274;18.268;2023-08-17T07:17:41;100930.03;;;26.63;100.00
33404;BME280;19751;40.274;18.268;2023-08-17T07:20:07;100926.97;;;26.65;100.00
33404;BME280;19751;40.274;18.268;2023-08-17T07:22:33;100929.50;;;26.61;100.00
33404;BME280;19751;40.274;18.268;2023-08-17T07:24:59;100937.78;;;26.61;100.00
33404;BME280;19751;40.274;18.268;2023-08-17T07:27:24;100926.47;;;26.63;100.00
33404;BME280;19751;40.274;18.268;2023-08-17T07:29:50;100932.19;;;26.66;100.00
33404;BME280;19751;40.274;18.268;2023-08-17T07:32:15;100932.44;;;26.70;100.00
33404;BME280;19751;40.274;18.268;2023-08-17T07:34:41;100931.56;;;26.74;100.00
33404;BME280;19751;40.274;18.268;2023-08-17T07:37:06;100942.84;;;26.78;100.00
33404;BME280;19751;40.274;18.268;2023-08-17T07:39:32;100933.16;;;26.81;100.00
33404;BME280;19751;40.274;18.268;2023-08-17T07:41:58;100932.84;;;26.82;100.00
33404;BME280;19751;40.274;18.268;2023-08-17T07:44:24;100929.81;;;26.84;100.00
33404;BME280;19751;40.274;18.268;2023-08-17T07:46:49;100926.44;;;26.87;100.00
33404;BME280;19751;40.274;18.268;2023-08-17T07:49:15;100932.75;;;26.92;100.00
33404;BME280;19751;40.274;18.268;2023-08-17T07:51:40;100932.16;;;26.95;100.00
33404;BME280;19751;40.274;18.268;2023-08-17T07:54:07;100941.22;;;27.01;100.00
33404;BME280;19751;40.274;18.268;2023-08-17T07:56:32;100934.25;;;27.03;100.00
33404;BME280;19751;40.274;18.268;2023-08-17T07:58:58;100937.25;;;27.07;100.00
33404;BME280;19751;40.274;18.268;2023-08-17T08:01:23;100943.88;;;27.11;100.00
33404;BME280;19751;40.274;18.268;2023-08-17T08:03:49;100936.94;;;27.14;100.00
33404;BME280;19751;40.274;18.268;2023-08-17T08:06:15;100938.06;;;27.13;100.00
33404;BME280;19751;40.274;18.268;2023-08-17T08:08:40;100936.94;;;27.14;100.00
33404;BME280;19751;40.274;18.268;2023-08-17T08:11:06;100930.84;;;27.17;100.00
33404;BME280;19751;40.274;18.268;2023-08-17T08:13:32;100934.94;;;27.19;100.00
33404;BME280;19751;40.274;18.268;2023-08-17T08:16:00;100933.22;;;27.23;100.00
33404;BME280;19751;40.274;18.268;2023-08-17T08:18:25;100932.63;;;27.26;100.00
33404;BME280;19751;40.274;18.268;2023-08-17T08:20:51;100926.28;;;27.26;100.00
33404;BME280;19751;40.274;18.268;2023-08-17T08:23:16;100933.38;;;27.32;100.00
33404;BME280;19751;40.274;18.268;2023-08-17T08:25:42;100943.53;;;27.37;100.00
33404;BME280;19751;40.274;18.268;2023-08-17T08:28:08;100943.53;;;27.37;100.00
33404;BME280;19751;40.274;18.268;2023-08-17T08:30:34;100933.84;;;27.39;100.00
33404;BME280;19751;40.274;18.268;2023-08-17T08:32:59;100936.63;;;27.39;100.00
33404;BME280;19751;40.274;18.268;2023-08-17T08:35:25;100943.19;;;27.43;100.00
33404;BME280;19751;40.274;18.268;2023-08-17T08:37:51;100944.25;;;27.47;100.00
33404;BME280;19751;40.274;18.268;2023-08-17T08:40:17;100932.06;;;27.48;100.00
33404;BME280;19751;40.274;18.268;2023-08-17T08:42:43;100931.22;;;27.48;100.00
33404;BME280;19751;40.274;18.268;2023-08-17T08:45:09;100934.53;;;27.50;100.00
33404;BME280;19751;40.274;18.268;2023-08-17T08:47:36;100937.81;;;27.52;100.00
33404;BME280;19751;40.274;18.268;2023-08-17T08:50:04;100933.69;;;27.49;100.00
33404;BME280;19751;40.274;18.268;2023-08-17T08:52:42;100937.59;;;27.48;100.00
33404;BME280;19751;40.274;18.268;2023-08-17T08:55:13;100935.72;;;27.44;100.00
33404;BME280;19751;40.274;18.268;2023-08-17T08:57:41;100932.13;;;27.43;100.00
33404;BME280;19751;40.274;18.268;2023-08-17T09:00:07;100939.59;;;27.43;100.00
33404;BME280;19751;40.274;18.268;2023-08-17T09:02:33;100928.31;;;27.39;100.00
33404;BME280;19751;40.274;18.268;2023-08-17T09:05:00;100929.13;;;27.40;100.00
33404;BME280;19751;40.274;18.268;2023-08-17T09:07:29;100919.13;;;27.44;100.00
33404;BME280;19751;40.274;18.268;2023-08-17T09:09:55;100929.00;;;27.50;100.00
33404;BME280;19751;40.274;18.268;2023-08-17T09:12:22;100918.13;;;27.54;100.00
33404;BME280;19751;40.274;18.268;2023-08-17T09:14:49;100932.75;;;27.59;100.00
33404;BME280;19751;40.274;18.268;2023-08-17T09:17:23;100918.31;;;27.62;100.00
33404;BME280;19751;40.274;18.268;2023-08-17T09:19:48;100922.19;;;27.61;100.00
33404;BME280;19751;40.274;18.268;2023-08-17T09:22:22;100927.94;;;27.65;100.00
33404;BME280;19751;40.274;18.268;2023-08-17T09:24:48;100923.78;;;27.67;100.00
33404;BME280;19751;40.274;18.268;2023-08-17T09:27:13;100915.38;;;27.72;100.00
33404;BME280;19751;40.274;18.268;2023-08-17T09:29:42;100929.78;;;27.74;100.00
33404;BME280;19751;40.274;18.268;2023-08-17T09:32:11;100924.44;;;27.78;100.00
33404;BME280;19751;40.274;18.268;2023-08-17T09:34:37;100918.00;;;27.83;100.00
33404;BME280;19751;40.274;18.268;2023-08-17T09:37:05;100932.91;;;27.87;100.00
33404;BME280;19751;40.274;18.268;2023-08-17T09:39:31;100917.94;;;27.88;100.00
33404;BME280;19751;40.274;18.268;2023-08-17T09:41:57;100918.22;;;27.86;100.00
33404;BME280;19751;40.274;18.268;2023-08-17T09:44:22;100916.00;;;27.88;100.00
33404;BME280;19751;40.274;18.268;2023-08-17T09:46:48;100925.13;;;27.89;100.00
33404;BME280;19751;40.274;18.268;2023-08-17T09:49:13;100912.91;;;27.90;100.00
33404;BME280;19751;40.274;18.268;2023-08-17T09:51:43;100913.47;;;27.92;100.00
33404;BME280;19751;40.274;18.268;2023-08-17T09:54:22;100903.13;;;27.97;100.00
33404;BME280;19751;40.274;18.268;2023-08-17T09:56:50;100905.50;;;28.04;100.00
33404;BME280;19751;40.274;18.268;2023-08-17T09:59:16;100904.88;;;28.07;100.00
33404;BME280;19751;40.274;18.268;2023-08-17T10:01:42;100903.78;;;28.08;100.00
33404;BME280;19751;40.274;18.268;2023-08-17T10:04:09;100903.47;;;28.10;100.00
33404;BME280;19751;40.274;18.268;2023-08-17T10:06:39;100907.59;;;28.12;100.00
33404;BME280;19751;40.274;18.268;2023-08-17T10:09:09;100895.97;;;28.10;100.00
33404;BME280;19751;40.274;18.268;2023-08-17T10:11:36;100908.19;;;28.09;100.00
33404;BME280;19751;40.274;18.268;2023-08-17T10:14:09;100909.22;;;28.13;100.00
33404;BME280;19751;40.274;18.268;2023-08-17T10:16:45;100904.81;;;28.12;100.00
33404;BME280;19751;40.274;18.268;2023-08-17T10:19:43;100900.31;;;28.16;100.00
33404;BME280;19751;40.274;18.268;2023-08-17T10:22:26;100906.13;;;28.15;100.00
33404;BME280;19751;40.274;18.268;2023-08-17T10:24:56;100906.94;;;28.15;100.00
33404;BME280;19751;40.274;18.268;2023-08-17T10:27:23;100908.63;;;28.16;100.00
33404;BME280;19751;40.274;18.268;2023-08-17T10:29:50;100909.66;;;28.20;100.00
33404;BME280;19751;40.274;18.268;2023-08-17T10:32:17;100907.72;;;28.21;100.00
33404;BME280;19751;40.274;18.268;2023-08-17T10:34:43;100893.84;;;28.21;100.00
33404;BME280;19751;40.274;18.268;2023-08-17T10:37:10;100906.25;;;28.23;100.00
33404;BME280;19751;40.274;18.268;2023-08-17T10:39:45;100915.59;;;28.28;100.00
33404;BME280;19751;40.274;18.268;2023-08-17T10:42:11;100902.88;;;28.27;100.00
33404;BME280;19751;40.274;18.268;2023-08-17T10:44:39;100907.28;;;28.28;100.00
33404;BME280;19751;40.274;18.268;2023-08-17T10:47:19;100910.69;;;28.24;100.00
33404;BME280;19751;40.274;18.268;2023-08-17T10:49:51;100907.63;;;28.26;100.00
33404;BME280;19751;40.274;18.268;2023-08-17T10:52:26;100908.97;;;28.29;100.00
33404;BME280;19751;40.274;18.268;2023-08-17T10:54:53;100897.88;;;28.29;100.00
33404;BME280;19751;40.274;18.268;2023-08-17T10:57:32;100892.50;;;28.37;100.00
33404;BME280;19751;40.274;18.268;2023-08-17T11:03:00;100895.28;;;28.51;100.00
33404;BME280;19751;40.274;18.268;2023-08-17T11:05:36;100894.13;;;28.52;100.00
33404;BME280;19751;40.274;18.268;2023-08-17T11:08:20;100886.34;;;28.54;100.00
33404;BME280;19751;40.274;18.268;2023-08-17T11:13:32;100883.69;;;28.63;100.00
33404;BME280;19751;40.274;18.268;2023-08-17T11:15:59;100886.97;;;28.65;100.00
33404;BME280;19751;40.274;18.268;2023-08-17T11:18:25;100884.72;;;28.67;100.00
33404;BME280;19751;40.274;18.268;2023-08-17T11:20:50;100885.00;;;28.65;100.00
33404;BME280;19751;40.274;18.268;2023-08-17T11:23:17;100891.56;;;28.69;100.00
33404;BME280;19751;40.274;18.268;2023-08-17T11:25:43;100886.34;;;28.68;100.00
33404;BME280;19751;40.274;18.268;2023-08-17T11:28:09;100885.22;;;28.69;100.00
33404;BME280;19751;40.274;18.268;2023-08-17T11:30:35;100879.59;;;28.74;100.00
33404;BME280;19751;40.274;18.268;2023-08-17T11:33:04;100867.97;;;28.72;100.00
33404;BME280;19751;40.274;18.268;2023-08-17T11:35:30;100872.72;;;28.71;100.00
33404;BME280;19751;40.274;18.268;2023-08-17T11:37:56;100874.88;;;28.74;100.00
33404;BME280;19751;40.274;18.268;2023-08-17T11:40:22;100869.00;;;28.76;100.00
33404;BME280;19751;40.274;18.268;2023-08-17T11:42:48;100869.72;;;28.82;100.00
33404;BME280;19751;40.274;18.268;2023-08-17T11:45:14;100865.31;;;28.81;100.00
33404;BME280;19751;40.274;18.268;2023-08-17T11:47:42;100871.38;;;28.83;100.00
33404;BME280;19751;40.274;18.268;2023-08-17T11:50:11;100874.66;;;28.85;100.00
33404;BME280;19751;40.274;18.268;2023-08-17T11:52:37;100881.53;;;28.87;100.00
33404;BME280;19751;40.274;18.268;2023-08-17T11:55:07;100865.94;;;28.91;100.00
33404;BME280;19751;40.274;18.268;2023-08-17T11:57:35;100872.56;;;28.90;100.00
33404;BME280;19751;40.274;18.268;2023-08-17T12:00:02;100862.84;;;28.93;100.00
33404;BME280;19751;40.274;18.268;2023-08-17T12:02:29;100870.34;;;28.92;100.00
33404;BME280;19751;40.274;18.268;2023-08-17T12:04:56;100882.25;;;28.93;100.00
33404;BME280;19751;40.274;18.268;2023-08-17T12:07:23;100862.22;;;28.96;100.00
33404;BME280;19751;40.274;18.268;2023-08-17T12:09:50;100865.22;;;29.00;100.00
33404;BME280;19751;40.274;18.268;2023-08-17T12:12:19;100874.75;;;29.07;100.00
33404;BME280;19751;40.274;18.268;2023-08-17T12:14:46;100858.84;;;29.13;100.00
33404;BME280;19751;40.274;18.268;2023-08-17T12:17:19;100861.00;;;29.16;100.00
33404;BME280;19751;40.274;18.268;2023-08-17T12:19:48;100863.25;;;29.14;100.00
33404;BME280;19751;40.274;18.268;2023-08-17T12:22:15;100852.97;;;29.14;100.00
33404;BME280;19751;40.274;18.268;2023-08-17T12:24:41;100854.09;;;29.13;100.00
33404;BME280;19751;40.274;18.268;2023-08-17T12:27:07;100858.50;;;29.14;100.00
33404;BME280;19751;40.274;18.268;2023-08-17T12:29:32;100855.13;;;29.17;100.00
33404;BME280;19751;40.274;18.268;2023-08-17T12:31:58;100870.63;;;29.18;100.00
33404;BME280;19751;40.274;18.268;2023-08-17T12:34:24;100853.50;;;29.16;100.00